Time;durP1;ratioP1;P1;durP2;ratioP2;P2;SDS_P1;SDS_P2;PMS_P1;PMS_P2;Temp;Humidity;BMP_temperature;BMP_pressure;BME280_temperature;BME280_humidity;BME280_pressure;Samples;Min_cycle;Max_cycle;Signal;HPM_P1;HPM_P2
2023/08/22 00:00:00;;;;;;;9.55;5.53;;;;;;;;;;527383;28;994;-80
2023/08/22 00:00:15;;;;;;;8.97;5.50;;;;;;;;;;527475;28;1271;-80
2023/08/22 00:00:32;;;;;;;8.15;5.55;;;;;;;;;;527146;28;975;-80
2023/08/22 00:00:47;;;;;;;7.82;5.65;;;;;;;;;;526754;28;1279;-80
2023/08/22 00:01:04;;;;;;;8.27;5.53;;;;;;;;;;527758;28;1420;-80
2023/08/22 00:01:19;;;;;;;9.13;5.57;;;;;;;;;;530075;27;800;-80
2023/08/22 00:01:34;;;;;;;6.90;5.43;;;;;;;;;;529545;28;1221;-79
2023/08/22 00:01:50;;;;;;;5.67;5.07;;;;;;;;;;531179;27;1296;-80
2023/08/22 00:02:05;;;;;;;6.32;5.07;;;;;;;;;;529231;28;1316;-80
2023/08/22 00:02:20;;;;;;;8.50;5.47;;;;;;;;;;529028;28;1222;-80
2023/08/22 00:02:36;;;;;;;9.40;5.60;;;;;;;;;;526697;28;1281;-80
2023/08/22 00:02:51;;;;;;;9.70;5.80;;;;;;;;;;527149;28;1386;-81
2023/08/22 00:03:06;;;;;;;7.73;5.47;;;;;;;;;;527440;28;923;-80
2023/08/22 00:03:22;;;;;;;7.07;5.20;;;;;;;;;;526568;28;1254;-80
2023/08/22 00:03:37;;;;;;;7.97;5.43;;;;;;;;;;525049;28;1323;-80
2023/08/22 00:03:56;;;;;;;8.23;5.30;;;;;;;;;;524353;28;1382;-80
2023/08/22 00:04:11;;;;;;;9.13;5.50;;;;;;;;;;524659;28;1461;-80
2023/08/22 00:04:27;;;;;;;8.98;5.57;;;;;;;;;;526674;28;1317;-80
2023/08/22 00:04:43;;;;;;;7.43;5.30;;;;;;;;;;529379;28;1303;-80
2023/08/22 00:04:58;;;;;;;7.82;5.40;;;;;;;;;;529018;28;799;-80
2023/08/22 00:05:14;;;;;;;8.23;5.37;;;;;;;;;;528868;28;1118;-80
2023/08/22 00:05:29;;;;;;;7.50;5.20;;;;;;;;;;529272;28;863;-80
2023/08/22 00:05:45;;;;;;;7.03;5.37;;;;;;;;;;529742;27;1281;-80
2023/08/22 00:06:00;;;;;;;6.07;5.30;;;;;;;;;;531122;27;1304;-79
2023/08/22 00:06:15;;;;;;;6.20;5.17;;;;;;;;;;529691;27;1302;-80
2023/08/22 00:06:31;;;;;;;7.67;5.50;;;;;;;;;;529079;28;1210;-80
2023/08/22 00:06:46;;;;;;;8.20;5.43;;;;;;;;;;528568;28;1233;-80
2023/08/22 00:07:01;;;;;;;8.23;5.20;;;;;;;;;;527895;28;1084;-80
2023/08/22 00:07:17;;;;;;;8.30;5.30;;;;;;;;;;526621;28;803;-80
2023/08/22 00:07:32;;;;;;;7.90;5.30;;;;;;;;;;522802;28;1316;-80
2023/08/22 00:07:48;;;;;;;8.90;5.50;;;;;;;;;;523129;28;1301;-79
2023/08/22 00:08:05;;;;;;;9.52;5.70;;;;;;;;;;522768;28;892;-80
2023/08/22 00:08:20;;;;;;;8.20;5.47;;;;;;;;;;524865;28;1508;-80
2023/08/22 00:08:35;;;;;;;8.53;5.10;;;;;;;;;;527079;28;1264;-80
2023/08/22 00:08:51;;;;;;;7.47;5.03;;;;;;;;;;527194;28;768;-80
2023/08/22 00:09:08;;;;;;;5.83;5.20;;;;;;;;;;524578;28;1192;-80
2023/08/22 00:09:24;;;;;;;7.00;5.38;;;;;;;;;;524893;28;926;-80
2023/08/22 00:09:39;;;;;;;8.93;5.50;;;;;;;;;;524619;28;888;-80
2023/08/22 00:09:55;;;;;;;8.57;5.40;;;;;;;;;;525332;28;1201;-80
2023/08/22 00:10:10;;;;;;;7.23;5.37;;;;;;;;;;525117;28;1208;-80
2023/08/22 00:10:26;;;;;;;7.68;5.40;;;;;;;;;;523265;28;1394;-80
2023/08/22 00:10:41;;;;;;;7.93;5.23;;;;;;;;;;523172;28;1246;-80
2023/08/22 00:10:57;;;;;;;8.20;5.22;;;;;;;;;;521407;28;1305;-80
2023/08/22 00:11:13;;;;;;;8.63;5.30;;;;;;;;;;518813;28;1442;-80
2023/08/22 00:11:29;;;;;;;8.00;5.20;;;;;;;;;;520837;28;1335;-80
2023/08/22 00:11:44;;;;;;;7.47;5.00;;;;;;;;;;520619;28;1513;-80
2023/08/22 00:11:59;;;;;;;7.53;4.80;;;;;;;;;;521592;28;1716;-80
2023/08/22 00:12:15;;;;;;;6.93;4.90;;;;;;;;;;521401;28;1629;-79
2023/08/22 00:12:31;;;;;;;6.73;5.00;;;;;;;;;;522909;28;1315;-80
2023/08/22 00:12:46;;;;;;;8.48;5.07;;;;;;;;;;520220;28;1452;-80
2023/08/22 00:13:02;;;;;;;7.90;5.10;;;;;;;;;;522545;28;1279;-80
2023/08/22 00:13:18;;;;;;;6.53;5.00;;;;;;;;;;523112;28;1898;-79
2023/08/22 00:13:33;;;;;;;7.03;5.00;;;;;;;;;;523205;28;1045;-80
2023/08/22 00:13:48;;;;;;;7.85;5.25;;;;;;;;;;524664;28;1259;-80
2023/08/22 00:14:04;;;;;;;8.00;5.07;;;;;;;;;;522616;28;1264;-80
2023/08/22 00:14:19;;;;;;;7.17;4.87;;;;;;;;;;524665;28;1417;-80
2023/08/22 00:14:34;;;;;;;6.87;5.13;;;;;;;;;;524999;28;1101;-80
2023/08/22 00:14:50;;;;;;;7.93;5.35;;;;;;;;;;526907;28;780;-80
2023/08/22 00:15:09;;;;;;;6.85;5.00;;;;;;;;;;527058;28;1315;-80
2023/08/22 00:15:24;;;;;;;7.18;5.05;;;;;;;;;;526598;28;860;-80
2023/08/22 00:15:39;;;;;;;7.97;5.13;;;;;;;;;;527363;28;974;-80
2023/08/22 00:16:01;;;;;;;6.68;4.80;;;;;;;;;;526662;28;1335;-80
2023/08/22 00:16:16;;;;;;;6.88;4.90;;;;;;;;;;528364;28;1365;-80
2023/08/22 00:16:31;;;;;;;7.80;4.90;;;;;;;;;;526871;28;1238;-80
2023/08/22 00:16:47;;;;;;;7.32;4.60;;;;;;;;;;526728;28;1271;-80
2023/08/22 00:17:03;;;;;;;6.13;4.57;;;;;;;;;;527077;28;1295;-80
2023/08/22 00:17:19;;;;;;;6.95;4.97;;;;;;;;;;526775;28;1432;-79
2023/08/22 00:17:35;;;;;;;7.40;4.80;;;;;;;;;;526691;28;1439;-80
2023/08/22 00:17:50;;;;;;;6.82;4.70;;;;;;;;;;522806;28;1281;-80
2023/08/22 00:18:06;;;;;;;6.73;4.90;;;;;;;;;;522744;28;773;-80
2023/08/22 00:18:21;;;;;;;8.60;5.00;;;;;;;;;;522540;28;816;-79
2023/08/22 00:18:37;;;;;;;8.95;4.90;;;;;;;;;;522900;28;1433;-79
2023/08/22 00:18:52;;;;;;;8.17;4.70;;;;;;;;;;522984;28;792;-80
2023/08/22 00:19:07;;;;;;;8.17;4.70;;;;;;;;;;522580;28;1368;-80
2023/08/22 00:19:23;;;;;;;7.53;5.05;;;;;;;;;;522744;28;1357;-79
2023/08/22 00:19:39;;;;;;;9.53;5.20;;;;;;;;;;524691;28;1172;-80
2023/08/22 00:19:54;;;;;;;8.38;5.00;;;;;;;;;;524822;28;1368;-80
2023/08/22 00:20:12;;;;;;;5.80;4.70;;;;;;;;;;522543;28;1336;-79
2023/08/22 00:20:27;;;;;;;7.18;4.80;;;;;;;;;;522553;28;864;-80
2023/08/22 00:20:42;;;;;;;8.43;4.87;;;;;;;;;;520217;28;1185;-80
2023/08/22 00:20:58;;;;;;;6.97;4.93;;;;;;;;;;521225;28;1053;-80
2023/08/22 00:21:13;;;;;;;8.45;5.13;;;;;;;;;;523743;28;801;-79
2023/08/22 00:21:30;;;;;;;9.40;5.13;;;;;;;;;;525121;28;931;-80
2023/08/22 00:21:45;;;;;;;7.10;5.10;;;;;;;;;;523441;28;1413;-80
2023/08/22 00:22:01;;;;;;;6.93;4.93;;;;;;;;;;523692;28;1236;-80
2023/08/22 00:22:16;;;;;;;8.70;5.00;;;;;;;;;;522294;28;1196;-80
2023/08/22 00:22:31;;;;;;;8.83;5.20;;;;;;;;;;523566;28;994;-80
2023/08/22 00:22:47;;;;;;;7.70;5.20;;;;;;;;;;522851;28;1211;-80
2023/08/22 00:23:03;;;;;;;6.70;5.03;;;;;;;;;;521305;28;1254;-79
2023/08/22 00:23:19;;;;;;;6.32;4.88;;;;;;;;;;521102;28;856;-80
2023/08/22 00:23:34;;;;;;;6.93;4.93;;;;;;;;;;521353;28;1010;-80
2023/08/22 00:23:49;;;;;;;8.10;4.93;;;;;;;;;;522388;28;1343;-80
2023/08/22 00:24:05;;;;;;;8.43;4.70;;;;;;;;;;525277;28;809;-80
2023/08/22 00:24:20;;;;;;;7.53;4.90;;;;;;;;;;525532;28;1470;-80
2023/08/22 00:24:36;;;;;;;7.47;5.20;;;;;;;;;;523607;28;1211;-80
2023/08/22 00:24:51;;;;;;;7.90;5.03;;;;;;;;;;525817;28;1132;-80
2023/08/22 00:25:07;;;;;;;7.37;5.10;;;;;;;;;;526022;28;1262;-80
2023/08/22 00:25:22;;;;;;;7.30;5.30;;;;;;;;;;523542;28;1357;-80
2023/08/22 00:25:38;;;;;;;7.80;5.13;;;;;;;;;;523478;28;1337;-80
2023/08/22 00:25:54;;;;;;;7.37;4.90;;;;;;;;;;523389;28;788;-79
2023/08/22 00:26:09;;;;;;;7.93;5.00;;;;;;;;;;523149;28;957;-80
2023/08/22 00:26:24;;;;;;;6.73;4.90;;;;;;;;;;525607;28;1203;-80
2023/08/22 00:26:40;;;;;;;6.17;4.77;;;;;;;;;;525671;28;1157;-80
2023/08/22 00:26:57;;;;;;;7.33;5.00;;;;;;;;;;523574;28;1196;-79
2023/08/22 00:27:12;;;;;;;7.50;5.07;;;;;;;;;;525742;28;1424;-80
2023/08/22 00:27:27;;;;;;;7.40;5.00;;;;;;;;;;526433;28;1858;-79
2023/08/22 00:27:43;;;;;;;7.13;5.10;;;;;;;;;;524821;28;1769;-80
2023/08/22 00:27:58;;;;;;;6.97;5.10;;;;;;;;;;524514;28;1866;-80
2023/08/22 00:28:14;;;;;;;7.78;5.28;;;;;;;;;;526245;28;752;-80
2023/08/22 00:28:29;;;;;;;8.00;5.30;;;;;;;;;;525517;28;1244;-80
2023/08/22 00:28:44;;;;;;;8.85;5.40;;;;;;;;;;527221;28;1002;-80
2023/08/22 00:29:00;;;;;;;8.53;5.40;;;;;;;;;;527588;28;1263;-80
2023/08/22 00:29:15;;;;;;;6.90;5.20;;;;;;;;;;529793;28;942;-80
2023/08/22 00:29:30;;;;;;;6.75;4.97;;;;;;;;;;527959;28;1372;-80
2023/08/22 00:29:46;;;;;;;7.90;5.20;;;;;;;;;;527325;28;859;-80
2023/08/22 00:30:02;;;;;;;9.00;5.50;;;;;;;;;;525262;28;1216;-80
2023/08/22 00:30:17;;;;;;;11.48;5.60;;;;;;;;;;525356;28;1312;-79
2023/08/22 00:30:33;;;;;;;10.77;5.55;;;;;;;;;;526283;28;1387;-80
2023/08/22 00:30:48;;;;;;;8.40;5.40;;;;;;;;;;526809;28;1277;-80
2023/08/22 00:31:03;;;;;;;8.53;5.40;;;;;;;;;;526698;28;1196;-80
2023/08/22 00:31:18;;;;;;;8.80;5.13;;;;;;;;;;527317;28;777;-80
2023/08/22 00:31:34;;;;;;;8.53;5.30;;;;;;;;;;526452;28;1532;-81
2023/08/22 00:31:49;;;;;;;8.77;5.60;;;;;;;;;;528428;28;1251;-79
2023/08/22 00:32:04;;;;;;;9.07;5.50;;;;;;;;;;525328;28;1403;-80
2023/08/22 00:32:20;;;;;;;10.90;5.60;;;;;;;;;;525417;28;1426;-80
2023/08/22 00:32:35;;;;;;;10.07;5.50;;;;;;;;;;525363;28;1560;-80
2023/08/22 00:32:51;;;;;;;8.40;5.40;;;;;;;;;;524883;28;2108;-80
2023/08/22 00:33:06;;;;;;;7.93;5.40;;;;;;;;;;524692;28;1497;-80
2023/08/22 00:33:21;;;;;;;7.83;5.27;;;;;;;;;;524528;28;1984;-80
2023/08/22 00:33:37;;;;;;;9.00;5.57;;;;;;;;;;523802;28;1519;-79
2023/08/22 00:33:52;;;;;;;8.53;5.90;;;;;;;;;;525656;28;1367;-80
2023/08/22 00:34:07;;;;;;;9.37;5.83;;;;;;;;;;523984;28;1367;-80
2023/08/22 00:34:23;;;;;;;9.88;5.40;;;;;;;;;;524741;28;1330;-80
2023/08/22 00:34:38;;;;;;;8.20;5.20;;;;;;;;;;523901;28;1509;-80
2023/08/22 00:34:53;;;;;;;9.50;5.30;;;;;;;;;;523278;28;926;-80
2023/08/22 00:35:09;;;;;;;11.77;5.35;;;;;;;;;;521580;28;1550;-80
2023/08/22 00:35:28;;;;;;;8.93;5.03;;;;;;;;;;522894;28;1598;-80
2023/08/22 00:35:43;;;;;;;6.38;5.00;;;;;;;;;;526021;28;1321;-79
2023/08/22 00:35:59;;;;;;;6.68;4.93;;;;;;;;;;526452;28;1433;-79
2023/08/22 00:36:14;;;;;;;6.70;4.93;;;;;;;;;;526689;28;1366;-80
2023/08/22 00:36:29;;;;;;;7.20;5.20;;;;;;;;;;524646;28;1431;-79
2023/08/22 00:36:45;;;;;;;8.18;5.13;;;;;;;;;;525101;28;1439;-80
2023/08/22 00:37:00;;;;;;;9.23;5.00;;;;;;;;;;525242;28;1387;-79
2023/08/22 00:37:16;;;;;;;9.20;5.10;;;;;;;;;;526390;28;1442;-80
2023/08/22 00:37:31;;;;;;;8.30;5.25;;;;;;;;;;524752;28;1252;-81
2023/08/22 00:37:47;;;;;;;6.80;5.10;;;;;;;;;;524685;28;1647;-79
2023/08/22 00:38:02;;;;;;;5.97;4.75;;;;;;;;;;524663;28;1407;-80
2023/08/22 00:38:17;;;;;;;9.00;5.30;;;;;;;;;;527730;28;1548;-80
2023/08/22 00:38:33;;;;;;;9.98;5.38;;;;;;;;;;525931;28;1243;-80
2023/08/22 00:38:48;;;;;;;8.70;5.30;;;;;;;;;;525486;28;1415;-79
2023/08/22 00:39:04;;;;;;;8.03;5.40;;;;;;;;;;525492;28;1601;-80
2023/08/22 00:39:19;;;;;;;9.40;5.40;;;;;;;;;;527015;27;1296;-79
2023/08/22 00:39:35;;;;;;;9.20;5.07;;;;;;;;;;526657;28;1492;-80
2023/08/22 00:39:50;;;;;;;7.07;5.00;;;;;;;;;;529532;27;1476;-80
2023/08/22 00:40:07;;;;;;;7.83;5.40;;;;;;;;;;527912;28;1540;-80
2023/08/22 00:40:22;;;;;;;9.63;5.70;;;;;;;;;;525805;28;1494;-80
2023/08/22 00:40:38;;;;;;;8.77;5.60;;;;;;;;;;526850;28;1480;-80
2023/08/22 00:40:53;;;;;;;7.00;5.30;;;;;;;;;;526037;28;1500;-80
2023/08/22 00:41:08;;;;;;;7.27;5.13;;;;;;;;;;528239;28;1487;-80
2023/08/22 00:41:24;;;;;;;8.20;5.30;;;;;;;;;;529632;27;1409;-80
2023/08/22 00:41:39;;;;;;;8.43;5.47;;;;;;;;;;526907;28;1330;-79
2023/08/22 00:41:54;;;;;;;8.45;5.30;;;;;;;;;;526975;28;1524;-79
2023/08/22 00:42:09;;;;;;;9.40;5.30;;;;;;;;;;530887;27;1329;-80
2023/08/22 00:42:25;;;;;;;9.27;5.27;;;;;;;;;;528103;27;1587;-80
2023/08/22 00:42:40;;;;;;;9.18;5.30;;;;;;;;;;528691;27;1360;-80
2023/08/22 00:42:55;;;;;;;8.27;5.27;;;;;;;;;;527090;28;1344;-80
2023/08/22 00:43:11;;;;;;;7.93;5.00;;;;;;;;;;525881;28;1264;-79
2023/08/22 00:43:26;;;;;;;9.85;5.05;;;;;;;;;;524720;28;1793;-80
2023/08/22 00:43:41;;;;;;;9.47;5.20;;;;;;;;;;526450;28;1645;-80
2023/08/22 00:43:57;;;;;;;8.33;5.27;;;;;;;;;;526619;28;1705;-79
2023/08/22 00:44:12;;;;;;;8.07;5.27;;;;;;;;;;526525;28;1228;-80
2023/08/22 00:44:27;;;;;;;8.32;5.05;;;;;;;;;;528171;28;1409;-80
2023/08/22 00:44:43;;;;;;;8.23;5.00;;;;;;;;;;528677;28;1207;-80
2023/08/22 00:44:58;;;;;;;7.63;5.00;;;;;;;;;;526325;28;1243;-80
2023/08/22 00:45:14;;;;;;;8.73;5.17;;;;;;;;;;526099;28;1460;-80
2023/08/22 00:45:29;;;;;;;8.37;5.13;;;;;;;;;;526268;28;1529;-80
2023/08/22 00:45:44;;;;;;;7.57;5.05;;;;;;;;;;526595;28;1461;-80
2023/08/22 00:46:00;;;;;;;8.27;5.40;;;;;;;;;;527861;28;1571;-80
2023/08/22 00:46:15;;;;;;;7.63;5.13;;;;;;;;;;526616;28;1571;-80
2023/08/22 00:46:31;;;;;;;6.45;4.93;;;;;;;;;;527713;28;1385;-80
2023/08/22 00:46:46;;;;;;;6.07;4.63;;;;;;;;;;526771;28;1531;-80
2023/08/22 00:47:02;;;;;;;5.85;4.50;;;;;;;;;;526138;28;1441;-80
2023/08/22 00:47:18;;;;;;;7.90;4.90;;;;;;;;;;525570;28;1441;-80
2023/08/22 00:47:33;;;;;;;8.23;4.97;;;;;;;;;;526226;28;1493;-80
2023/08/22 00:47:49;;;;;;;6.97;4.57;;;;;;;;;;525659;28;1769;-80
2023/08/22 00:48:05;;;;;;;6.93;4.50;;;;;;;;;;527105;28;1900;-80
2023/08/22 00:48:20;;;;;;;7.72;4.90;;;;;;;;;;524164;28;1462;-80
2023/08/22 00:48:35;;;;;;;7.75;5.00;;;;;;;;;;526302;28;1660;-80
2023/08/22 00:48:51;;;;;;;6.73;5.13;;;;;;;;;;526223;28;1224;-79
2023/08/22 00:49:10;;;;;;;6.45;5.20;;;;;;;;;;527641;28;1267;-80
2023/08/22 00:49:26;;;;;;;8.45;5.32;;;;;;;;;;527516;28;1508;-80
2023/08/22 00:49:41;;;;;;;9.90;5.37;;;;;;;;;;525518;28;1386;-82
2023/08/22 00:49:57;;;;;;;7.93;5.25;;;;;;;;;;523921;28;1291;-79
2023/08/22 00:50:12;;;;;;;6.43;5.10;;;;;;;;;;523209;28;1474;-80
2023/08/22 00:50:28;;;;;;;7.78;5.10;;;;;;;;;;521660;28;1564;-80
2023/08/22 00:50:43;;;;;;;9.07;5.27;;;;;;;;;;522798;28;1181;-80
2023/08/22 00:50:58;;;;;;;9.30;5.30;;;;;;;;;;522174;28;1517;-80
2023/08/22 00:51:16;;;;;;;8.65;5.25;;;;;;;;;;523459;28;1487;-80
2023/08/22 00:51:32;;;;;;;7.35;5.20;;;;;;;;;;523262;28;1082;-80
2023/08/22 00:51:47;;;;;;;6.67;4.90;;;;;;;;;;525067;28;1537;-80
2023/08/22 00:52:04;;;;;;;6.78;5.05;;;;;;;;;;528478;28;1437;-81
2023/08/22 00:52:19;;;;;;;8.20;5.35;;;;;;;;;;528107;27;1512;-79
2023/08/22 00:52:34;;;;;;;8.07;5.20;;;;;;;;;;526026;28;1259;-80
2023/08/22 00:52:50;;;;;;;6.97;5.00;;;;;;;;;;524432;28;1514;-80
2023/08/22 00:53:05;;;;;;;7.83;5.00;;;;;;;;;;524113;28;1398;-80
2023/08/22 00:53:20;;;;;;;8.20;5.20;;;;;;;;;;525736;28;2404;-80
2023/08/22 00:53:36;;;;;;;7.40;5.15;;;;;;;;;;524775;28;1493;-80
2023/08/22 00:53:52;;;;;;;6.85;4.85;;;;;;;;;;524113;28;1500;-80
2023/08/22 00:54:08;;;;;;;6.40;4.80;;;;;;;;;;522767;28;1419;-80
2023/08/22 00:54:26;;;;;;;7.18;4.97;;;;;;;;;;524017;28;1345;-80
2023/08/22 00:54:42;;;;;;;9.48;5.13;;;;;;;;;;519366;28;1542;-80
2023/08/22 00:54:57;;;;;;;8.95;5.10;;;;;;;;;;522663;28;1557;-80
2023/08/22 00:55:13;;;;;;;6.43;4.83;;;;;;;;;;523116;28;1238;-80
2023/08/22 00:55:29;;;;;;;6.93;5.10;;;;;;;;;;526065;28;1359;-80
2023/08/22 00:55:44;;;;;;;6.80;5.00;;;;;;;;;;524444;28;1151;-80
2023/08/22 00:56:00;;;;;;;6.20;4.80;;;;;;;;;;523193;28;1211;-80
2023/08/22 00:56:16;;;;;;;7.60;5.10;;;;;;;;;;524194;28;1362;-80
2023/08/22 00:56:32;;;;;;;7.90;5.18;;;;;;;;;;525001;28;1226;-80
2023/08/22 00:56:49;;;;;;;6.93;4.90;;;;;;;;;;526865;28;1473;-79
2023/08/22 00:57:04;;;;;;;7.00;5.00;;;;;;;;;;524574;28;1287;-80
2023/08/22 00:57:20;;;;;;;6.73;5.20;;;;;;;;;;526856;28;1548;-80
2023/08/22 00:57:36;;;;;;;7.43;5.25;;;;;;;;;;529415;27;1535;-80
2023/08/22 00:57:52;;;;;;;8.23;5.15;;;;;;;;;;528902;28;1487;-80
2023/08/22 00:58:10;;;;;;;7.85;5.00;;;;;;;;;;529537;28;1563;-81
2023/08/22 00:58:26;;;;;;;8.13;5.32;;;;;;;;;;531296;27;1542;-82
2023/08/22 00:58:41;;;;;;;7.27;5.37;;;;;;;;;;530426;27;1203;-80
2023/08/22 00:58:58;;;;;;;5.50;4.85;;;;;;;;;;528540;28;1531;-80
2023/08/22 00:59:14;;;;;;;5.60;4.78;;;;;;;;;;526516;28;1454;-80
2023/08/22 00:59:29;;;;;;;6.63;5.10;;;;;;;;;;526528;28;1640;-80
2023/08/22 00:59:45;;;;;;;7.03;5.20;;;;;;;;;;525306;28;1453;-80
2023/08/22 01:00:07;;;;;;;7.13;5.15;;;;;;;;;;524517;28;1464;-80
2023/08/22 01:00:22;;;;;;;6.55;4.85;;;;;;;;;;526205;28;1280;-80
2023/08/22 01:00:37;;;;;;;7.70;4.93;;;;;;;;;;523467;28;1386;-81
2023/08/22 01:00:53;;;;;;;9.40;5.40;;;;;;;;;;524878;28;1608;-80
2023/08/22 01:01:08;;;;;;;9.25;5.20;;;;;;;;;;527813;28;1397;-81
2023/08/22 01:01:23;;;;;;;8.60;5.03;;;;;;;;;;525644;28;1399;-80
2023/08/22 01:01:39;;;;;;;9.43;5.20;;;;;;;;;;525800;28;1438;-80
2023/08/22 01:01:55;;;;;;;8.13;5.32;;;;;;;;;;526074;28;1523;-80
2023/08/22 01:02:11;;;;;;;7.00;5.20;;;;;;;;;;521822;28;1354;-80
2023/08/22 01:02:26;;;;;;;7.50;5.28;;;;;;;;;;524977;28;1522;-80
2023/08/22 01:02:42;;;;;;;8.03;5.10;;;;;;;;;;523246;28;1084;-80
2023/08/22 01:02:58;;;;;;;7.38;5.00;;;;;;;;;;524587;28;1214;-80
2023/08/22 01:03:13;;;;;;;6.97;5.30;;;;;;;;;;524415;28;1240;-80
2023/08/22 01:03:28;;;;;;;7.47;5.30;;;;;;;;;;511344;28;1328;-80
2023/08/22 01:03:44;;;;;;;7.93;5.50;;;;;;;;;;510076;28;990;-79
2023/08/22 01:03:59;;;;;;;8.80;5.57;;;;;;;;;;475035;28;1255;-81
2023/08/22 01:04:15;;;;;;;10.65;5.70;;;;;;;;;;468904;28;1116;-80
2023/08/22 01:04:30;;;;;;;11.35;5.80;;;;;;;;;;501008;28;1036;-80
2023/08/22 01:04:48;;;;;;;11.30;5.97;;;;;;;;;;501284;28;1248;-80
2023/08/22 01:05:08;;;;;;;8.15;5.63;;;;;;;;;;508249;28;1212;-80
2023/08/22 01:05:28;;;;;;;7.15;5.55;;;;;;;;;;466363;28;1523;-80
2023/08/22 01:05:53;;;;;;;6.80;5.72;;;;;;;;;;509171;28;1497;-81
2023/08/22 01:06:19;;;;;;;7.07;5.50;;;;;;;;;;470159;28;1188;-80
2023/08/22 01:07:00;;;;;;;8.05;5.68;;;;;;;;;;495823;28;943;-80
2023/08/22 01:07:26;;;;;;;7.03;5.30;;;;;;;;;;482799;28;1162;-80
2023/08/22 01:07:59;;;;;;;9.40;5.65;;;;;;;;;;515162;28;1154;-80
2023/08/22 01:08:24;;;;;;;7.70;5.20;;;;;;;;;;478081;28;1128;-80
2023/08/22 01:08:42;;;;;;;7.78;5.45;;;;;;;;;;500228;27;1398;-79
2023/08/22 01:09:04;;;;;;;7.00;5.38;;;;;;;;;;476584;28;1408;-80
2023/08/22 01:09:43;;;;;;;8.77;5.53;;;;;;;;;;480624;28;1234;-80
2023/08/22 01:10:18;;;;;;;7.27;5.13;;;;;;;;;;476487;28;1071;-80
2023/08/22 01:10:39;;;;;;;8.60;5.47;;;;;;;;;;513318;28;974;-80
2023/08/22 01:11:06;;;;;;;9.75;5.65;;;;;;;;;;480699;28;1305;-81
2023/08/22 01:11:30;;;;;;;8.95;5.43;;;;;;;;;;490906;28;1100;-80
2023/08/22 01:11:52;;;;;;;8.30;5.60;;;;;;;;;;508721;28;995;-81
2023/08/22 01:12:39;;;;;;;9.43;5.68;;;;;;;;;;478271;28;1046;-81
2023/08/22 01:13:02;;;;;;;8.52;5.20;;;;;;;;;;480697;28;1318;-80
2023/08/22 01:13:29;;;;;;;7.63;5.00;;;;;;;;;;476867;28;2007;-81
2023/08/22 01:13:49;;;;;;;7.00;4.97;;;;;;;;;;509360;28;1038;-81
2023/08/22 01:14:13;;;;;;;7.35;5.30;;;;;;;;;;466778;28;1159;-81
2023/08/22 01:14:32;;;;;;;9.38;5.57;;;;;;;;;;489961;28;1315;-81
2023/08/22 01:15:03;;;;;;;9.27;5.53;;;;;;;;;;493568;28;1275;-81
2023/08/22 01:15:29;;;;;;;6.25;5.10;;;;;;;;;;482899;28;1296;-81
2023/08/22 01:15:47;;;;;;;9.52;5.40;;;;;;;;;;506479;28;1449;-81
2023/08/22 01:16:06;;;;;;;7.35;5.55;;;;;;;;;;471802;28;1260;-80
2023/08/22 01:16:23;;;;;;;7.28;5.53;;;;;;;;;;491072;28;1010;-80
2023/08/22 01:16:39;;;;;;;7.57;5.40;;;;;;;;;;513352;28;997;-78
2023/08/22 01:17:13;;;;;;;7.78;5.50;;;;;;;;;;484162;28;1194;-81
2023/08/22 01:17:29;;;;;;;9.35;5.00;;;;;;;;;;490088;28;1011;-79
2023/08/22 01:17:48;;;;;;;9.10;5.05;;;;;;;;;;514672;27;1329;-79
2023/08/22 01:18:04;;;;;;;5.18;4.60;;;;;;;;;;472969;28;1179;-79
2023/08/22 01:18:21;;;;;;;5.60;4.63;;;;;;;;;;477436;28;1299;-79
2023/08/22 01:18:39;;;;;;;5.38;4.82;;;;;;;;;;510311;28;1387;-78
2023/08/22 01:18:58;;;;;;;6.32;5.20;;;;;;;;;;487121;28;923;-80
2023/08/22 01:19:21;;;;;;;8.10;5.30;;;;;;;;;;477128;28;1255;-80
2023/08/22 01:19:36;;;;;;;7.68;5.38;;;;;;;;;;510297;28;986;-79
2023/08/22 01:19:52;;;;;;;9.50;5.57;;;;;;;;;;487162;28;1367;-83
2023/08/22 01:20:11;;;;;;;7.20;5.20;;;;;;;;;;467497;28;1248;-80
2023/08/22 01:20:27;;;;;;;5.78;4.90;;;;;;;;;;504770;28;2184;-80
2023/08/22 01:20:43;;;;;;;6.47;5.00;;;;;;;;;;513702;28;1237;-79
2023/08/22 01:21:04;;;;;;;6.13;5.10;;;;;;;;;;470953;28;1258;-81
2023/08/22 01:21:20;;;;;;;8.43;5.00;;;;;;;;;;482083;28;1096;-80
2023/08/22 01:21:36;;;;;;;7.63;5.40;;;;;;;;;;511069;28;1210;-80
2023/08/22 01:21:58;;;;;;;8.80;5.60;;;;;;;;;;495539;28;1249;-80
2023/08/22 01:22:23;;;;;;;6.35;5.15;;;;;;;;;;477959;28;1191;-80
2023/08/22 01:22:40;;;;;;;7.28;5.20;;;;;;;;;;513869;28;993;-79
2023/08/22 01:23:01;;;;;;;7.70;5.28;;;;;;;;;;481934;28;1262;-80
2023/08/22 01:23:17;;;;;;;8.32;5.20;;;;;;;;;;477805;28;1113;-80
2023/08/22 01:23:32;;;;;;;7.30;5.40;;;;;;;;;;509475;28;1204;-78
2023/08/22 01:23:47;;;;;;;7.95;5.47;;;;;;;;;;516438;28;1037;-80
2023/08/22 01:24:07;;;;;;;7.57;5.37;;;;;;;;;;474355;28;1280;-80
2023/08/22 01:24:22;;;;;;;7.40;5.28;;;;;;;;;;484415;28;1178;-79
2023/08/22 01:24:37;;;;;;;6.93;5.50;;;;;;;;;;510154;28;1231;-79
2023/08/22 01:24:53;;;;;;;7.07;5.33;;;;;;;;;;503456;28;1185;-80
2023/08/22 01:25:17;;;;;;;8.73;5.38;;;;;;;;;;471236;28;1130;-80
2023/08/22 01:25:33;;;;;;;9.70;5.50;;;;;;;;;;506838;28;1136;-79
2023/08/22 01:25:52;;;;;;;8.65;5.43;;;;;;;;;;499798;28;1014;-79
2023/08/22 01:26:08;;;;;;;7.88;5.18;;;;;;;;;;472059;28;1109;-80
2023/08/22 01:26:24;;;;;;;9.53;5.57;;;;;;;;;;479025;28;1195;-79
2023/08/22 01:26:39;;;;;;;8.15;5.63;;;;;;;;;;504689;28;1122;-79
2023/08/22 01:26:57;;;;;;;7.38;5.30;;;;;;;;;;481411;28;926;-80
2023/08/22 01:27:16;;;;;;;8.45;5.53;;;;;;;;;;473549;28;1480;-80
2023/08/22 01:27:39;;;;;;;9.98;5.80;;;;;;;;;;494909;28;1203;-79
2023/08/22 01:28:18;;;;;;;8.57;5.68;;;;;;;;;;484127;28;1252;-80
2023/08/22 01:28:42;;;;;;;9.75;6.10;;;;;;;;;;496101;28;1175;-79
2023/08/22 01:29:07;;;;;;;9.68;5.93;;;;;;;;;;491676;28;1215;-80
2023/08/22 01:29:47;;;;;;;8.07;5.57;;;;;;;;;;479390;28;1709;-80
2023/08/22 01:30:12;;;;;;;9.48;5.80;;;;;;;;;;473418;28;1058;-80
2023/08/22 01:31:01;;;;;;;7.25;5.90;;;;;;;;;;492444;28;1281;-79
2023/08/22 01:31:33;;;;;;;9.38;5.50;;;;;;;;;;479386;28;1277;-80
2023/08/22 01:32:29;;;;;;;8.15;5.60;;;;;;;;;;506030;28;1071;-80
2023/08/22 01:32:49;;;;;;;9.55;5.90;;;;;;;;;;505512;28;1306;-81
2023/08/22 01:33:13;;;;;;;7.38;5.70;;;;;;;;;;472488;28;1474;-80
2023/08/22 01:33:38;;;;;;;8.60;5.88;;;;;;;;;;479876;28;1990;-80
2023/08/22 01:34:11;;;;;;;8.18;6.05;;;;;;;;;;482742;28;1393;-80
2023/08/22 01:34:31;;;;;;;8.52;5.50;;;;;;;;;;479194;28;1099;-80
2023/08/22 01:34:53;;;;;;;9.38;5.60;;;;;;;;;;480428;28;1253;-80
2023/08/22 01:35:13;;;;;;;7.38;5.50;;;;;;;;;;488789;28;1108;-81
2023/08/22 01:35:29;;;;;;;7.70;5.80;;;;;;;;;;483781;28;1160;-80
2023/08/22 01:35:49;;;;;;;7.88;5.53;;;;;;;;;;511478;28;1390;-79
2023/08/22 01:36:16;;;;;;;7.13;5.30;;;;;;;;;;505708;28;1472;-80
2023/08/22 01:36:39;;;;;;;7.20;5.70;;;;;;;;;;483738;28;1030;-81
2023/08/22 01:36:55;;;;;;;8.65;5.85;;;;;;;;;;492139;28;1282;-80
2023/08/22 01:37:12;;;;;;;9.20;5.82;;;;;;;;;;481391;28;946;-80
2023/08/22 01:37:30;;;;;;;7.57;5.80;;;;;;;;;;485352;28;1277;-80
2023/08/22 01:37:47;;;;;;;8.05;5.70;;;;;;;;;;510343;28;1376;-79
2023/08/22 01:38:08;;;;;;;7.97;5.35;;;;;;;;;;482272;28;974;-81
2023/08/22 01:38:27;;;;;;;7.68;5.50;;;;;;;;;;497644;28;1120;-80
2023/08/22 01:38:43;;;;;;;8.18;5.90;;;;;;;;;;513660;28;1224;-79
2023/08/22 01:39:04;;;;;;;8.23;5.85;;;;;;;;;;509607;28;1302;-80
2023/08/22 01:39:27;;;;;;;7.78;5.55;;;;;;;;;;493176;28;1236;-79
2023/08/22 01:39:44;;;;;;;8.15;5.63;;;;;;;;;;473848;28;1180;-79
2023/08/22 01:40:05;;;;;;;6.80;5.68;;;;;;;;;;496097;28;982;-79
2023/08/22 01:40:26;;;;;;;6.68;5.38;;;;;;;;;;491993;28;1437;-80
2023/08/22 01:40:41;;;;;;;6.82;5.07;;;;;;;;;;501108;28;1294;-79
2023/08/22 01:40:58;;;;;;;6.65;5.05;;;;;;;;;;511019;28;1144;-80
2023/08/22 01:41:14;;;;;;;6.80;5.43;;;;;;;;;;489800;28;1495;-80
2023/08/22 01:41:29;;;;;;;6.55;5.60;;;;;;;;;;511661;28;1258;-79
2023/08/22 01:41:47;;;;;;;6.37;5.50;;;;;;;;;;511007;28;1391;-79
2023/08/22 01:42:03;;;;;;;6.82;5.40;;;;;;;;;;486771;28;1597;-79
2023/08/22 01:42:19;;;;;;;7.35;5.65;;;;;;;;;;490605;28;1188;-78
2023/08/22 01:42:42;;;;;;;8.43;5.67;;;;;;;;;;479960;28;1246;-82
2023/08/22 01:43:01;;;;;;;8.38;5.47;;;;;;;;;;482409;28;1206;-79
2023/08/22 01:43:28;;;;;;;7.50;5.50;;;;;;;;;;482374;28;1249;-80
2023/08/22 01:43:44;;;;;;;11.57;5.97;;;;;;;;;;502536;28;1290;-79
2023/08/22 01:44:11;;;;;;;;;;;;;;;;;;;;;
2023/08/22 01:44:36;;;;;;;10.27;5.70;;;;;;;;;;501566;28;1041;-80
2023/08/22 01:44:51;;;;;;;8.10;5.65;;;;;;;;;;479359;28;1703;-79
2023/08/22 01:45:10;;;;;;;8.75;5.70;;;;;;;;;;491169;28;1040;-80
2023/08/22 01:45:29;;;;;;;8.27;5.57;;;;;;;;;;499039;28;1222;-80
2023/08/22 01:45:44;;;;;;;8.07;5.60;;;;;;;;;;503639;28;1333;-79
2023/08/22 01:46:05;;;;;;;7.88;5.53;;;;;;;;;;493709;28;1358;-79
2023/08/22 01:46:23;;;;;;;7.47;5.60;;;;;;;;;;476833;28;1254;-80
2023/08/22 01:46:39;;;;;;;8.02;5.47;;;;;;;;;;492063;28;1300;-79
2023/08/22 01:46:54;;;;;;;8.07;5.50;;;;;;;;;;511848;28;1220;-79
2023/08/22 01:47:12;;;;;;;7.97;5.45;;;;;;;;;;483425;28;1021;-80
2023/08/22 01:47:54;;;;;;;7.43;5.13;;;;;;;;;;500775;28;1483;-80
2023/08/22 01:48:10;;;;;;;7.20;5.47;;;;;;;;;;477109;28;1211;-81
2023/08/22 01:48:25;;;;;;;9.73;5.23;;;;;;;;;;505382;28;1116;-80
2023/08/22 01:48:41;;;;;;;10.23;5.43;;;;;;;;;;476006;28;1046;-80
2023/08/22 01:48:57;;;;;;;8.73;5.55;;;;;;;;;;496994;28;1239;-80
2023/08/22 01:49:12;;;;;;;7.93;5.50;;;;;;;;;;480815;28;1155;-79